createdAt,value
2023-02-14T00:02:24.234Z,8.5
2023-02-14T00:07:40.625Z,7.6
2023-02-14T00:12:46.992Z,6.4
2023-02-14T00:17:52.519Z,7.2
2023-02-14T00:23:27.922Z,6.4
2023-02-14T00:28:30.412Z,7.8
2023-02-14T00:33:12.848Z,8.4
2023-02-14T00:38:19.107Z,8.2
2023-02-14T00:43:15.483Z,6.4
2023-02-14T00:48:31.891Z,8.5
2023-02-14T00:53:38.259Z,8.2
2023-02-14T00:58:44.784Z,8.6
2023-02-14T01:03:51.401Z,8.0
2023-02-14T01:08:57.748Z,9.6
2023-02-14T01:14:04.335Z,7.5
2023-02-14T01:19:00.832Z,10.7
2023-02-14T01:24:17.104Z,8.6
2023-02-14T01:30:01.698Z,13.7
2023-02-14T01:35:09.014Z,11.1
2023-02-14T01:40:15.436Z,8.7
2023-02-14T01:45:21.823Z,8.5
2023-02-14T01:50:28.269Z,10.4
2023-02-14T01:55:24.598Z,10.5
2023-02-14T02:00:40.999Z,11.3
2023-02-14T02:05:47.405Z,13.3
2023-02-14T02:10:43.871Z,9.9
2023-02-14T02:16:00.273Z,14.4
2023-02-14T02:21:06.885Z,9.9
2023-02-14T02:26:13.333Z,9.9
2023-02-14T02:31:39.869Z,9.5
2023-02-14T02:36:16.093Z,8.7
2023-02-14T02:41:32.578Z,10.0
2023-02-14T02:46:38.960Z,8.8
2023-02-14T02:51:59.390Z,10.2
2023-02-14T02:56:51.734Z,8.6
2023-02-14T03:01:58.132Z,10.5
2023-02-14T03:06:54.501Z,10.4
2023-02-14T03:12:00.915Z,9.5
2023-02-14T03:17:17.287Z,11.2
2023-02-14T03:22:43.855Z,12.0
2023-02-14T03:27:30.232Z,10.3
2023-02-14T03:32:36.584Z,11.6
2023-02-14T03:37:42.963Z,10.7
2023-02-14T03:42:49.372Z,9.8
2023-02-14T03:47:55.756Z,9.4
2023-02-14T03:53:06.159Z,10.4
2023-02-14T03:58:12.297Z,8.5
2023-02-14T04:03:18.701Z,10.3
2023-02-14T04:08:49.072Z,10.6
2023-02-14T04:13:21.416Z,10.0
2023-02-14T04:18:39.428Z,8.7
2023-02-14T04:23:45.873Z,11.2
2023-02-14T04:28:52.354Z,7.9
2023-02-14T04:33:58.701Z,7.9
2023-02-14T04:40:20.769Z,8.7
2023-02-14T04:44:35.107Z,10.1
2023-02-14T04:49:21.424Z,7.6
2023-02-14T04:55:27.913Z,7.5
2023-02-14T04:59:58.242Z,7.0
2023-02-14T05:04:40.552Z,8.1
2023-02-14T05:09:46.935Z,7.2
2023-02-14T05:14:53.437Z,6.3
2023-02-14T05:19:59.842Z,7.7
2023-02-14T05:25:06.191Z,6.4
2023-02-14T05:30:12.733Z,5.4
2023-02-14T05:35:19.038Z,6.2
2023-02-14T05:45:31.805Z,6.9
2023-02-14T05:50:39.314Z,5.6
2023-02-14T05:55:45.695Z,5.5
2023-02-14T06:00:52.080Z,6.6
2023-02-14T06:05:58.477Z,5.0
2023-02-14T06:11:04.828Z,5.2
2023-02-14T06:16:11.314Z,7.5
2023-02-14T06:21:17.609Z,7.3
2023-02-14T06:26:23.956Z,8.4
2023-02-14T06:31:30.416Z,7.6
2023-02-14T06:36:56.783Z,7.1
2023-02-14T06:42:07.153Z,5.6
2023-02-14T06:46:39.552Z,7.0
2023-02-14T06:51:55.944Z,8.0
2023-02-14T06:57:02.441Z,10.9
2023-02-14T07:02:32.974Z,9.8
2023-02-14T07:07:16.834Z,8.8
2023-02-14T07:12:23.232Z,11.8
2023-02-14T07:17:29.592Z,8.8
2023-02-14T07:22:35.962Z,10.4
2023-02-14T07:27:45.938Z,13.6
2023-02-14T07:32:52.317Z,12.8
2023-02-14T07:37:58.697Z,14.2
2023-02-14T07:43:05.094Z,11.7
2023-02-14T07:48:11.618Z,15.2
2023-02-14T07:53:18.175Z,16.0
2023-02-14T07:58:24.580Z,14.5
2023-02-14T08:03:20.959Z,20.3
2023-02-14T08:08:37.355Z,19.4
2023-02-14T08:13:43.774Z,17.4
2023-02-14T08:18:50.129Z,17.0
2023-02-14T08:23:56.503Z,15.8
2023-02-14T08:29:47.010Z,6.7
2023-02-14T08:34:09.272Z,14.8
2023-02-14T08:39:17.220Z,12.2
2023-02-14T08:44:23.618Z,10.6
2023-02-14T08:49:30.126Z,6.4
2023-02-14T08:59:43.378Z,9.5
2023-02-14T09:06:02.998Z,8.2
2023-02-14T09:09:57.215Z,5.8
2023-02-14T09:15:03.699Z,7.6
2023-02-14T09:20:10.076Z,7.0
2023-02-14T09:25:16.489Z,6.5
2023-02-14T09:30:42.883Z,9.3
2023-02-14T09:35:29.246Z,6.8
2023-02-14T09:40:35.696Z,8.9
2023-02-14T09:45:42.195Z,7.9
2023-02-14T09:50:48.443Z,10.0
2023-02-14T09:55:54.842Z,9.8
2023-02-14T10:00:51.204Z,10.7
2023-02-14T10:06:07.576Z,8.6
2023-02-14T10:11:13.994Z,8.4
2023-02-14T10:16:20.358Z,9.9
2023-02-14T10:21:26.716Z,11.8
2023-02-14T10:26:33.296Z,15.9
2023-02-14T10:31:39.796Z,13.5
2023-02-14T10:36:45.975Z,15.0
2023-02-14T10:41:52.363Z,15.2
2023-02-14T10:46:48.876Z,10.3
2023-02-14T10:52:05.217Z,10.2
2023-02-14T10:57:12.150Z,9.6
2023-02-14T11:02:18.565Z,11.7
2023-02-14T11:07:28.519Z,11.3
2023-02-14T11:12:54.962Z,9.6
2023-02-14T11:17:41.508Z,10.3
2023-02-14T11:22:47.875Z,10.7
2023-02-14T11:27:54.267Z,12.8
2023-02-14T11:33:00.677Z,11.5
2023-02-14T11:38:10.616Z,11.8
2023-02-14T11:43:41.032Z,10.7
2023-02-14T11:48:39.130Z,11.7
2023-02-14T11:53:29.755Z,10.3
2023-02-14T11:58:36.129Z,9.9
2023-02-14T12:03:42.573Z,11.1
2023-02-14T12:08:48.999Z,8.4
2023-02-14T12:13:55.381Z,9.1
2023-02-14T12:19:26.409Z,10.6
2023-02-14T12:24:08.731Z,10.9
2023-02-14T12:29:46.742Z,9.9
2023-02-14T12:34:15.049Z,11.8
2023-02-14T12:39:31.523Z,9.2
2023-02-14T12:51:00.450Z,10.6
2023-02-14T12:54:54.251Z,10.3
2023-02-14T13:00:00.740Z,11.5
2023-02-14T13:05:07.116Z,9.8
2023-02-14T13:10:13.526Z,11.9
2023-02-14T13:15:44.128Z,11.4
2023-02-14T13:20:46.280Z,9.2
2023-02-14T13:25:36.208Z,10.1
2023-02-14T13:31:06.654Z,9.8
2023-02-14T13:35:48.918Z,10.5
2023-02-14T13:40:55.324Z,9.7
2023-02-14T13:46:01.248Z,9.3
2023-02-14T13:51:28.198Z,10.5
2023-02-14T13:56:16.653Z,11.7
2023-02-14T14:11:39.153Z,7.9
2023-02-14T14:17:29.599Z,9.0
2023-02-14T14:21:53.155Z,9.6
2023-02-14T14:27:20.284Z,10.8
2023-02-14T14:32:06.709Z,9.4
2023-02-14T14:37:11.985Z,10.3
2023-02-14T14:42:39.413Z,10.3
2023-02-14T14:47:26.720Z,9.2
2023-02-14T14:52:33.097Z,11.3
2023-02-14T14:57:40.028Z,8.1
2023-02-14T15:02:46.768Z,10.0
2023-02-14T15:07:53.108Z,9.8
2023-02-14T15:18:06.395Z,11.1
2023-02-14T15:23:13.933Z,10.3
2023-02-14T15:28:20.296Z,9.2
2023-02-14T15:33:26.708Z,11.3
2023-02-14T15:38:33.081Z,8.6
2023-02-14T15:43:39.466Z,10.9
2023-02-14T15:48:45.869Z,13.3
2023-02-14T15:53:52.235Z,8.8
2023-02-14T15:58:58.750Z,9.9
2023-02-14T16:04:05.166Z,10.6
2023-02-14T16:09:13.101Z,11.9
2023-02-14T16:14:19.489Z,10.8
2023-02-14T16:19:15.866Z,11.7
2023-02-14T16:29:42.223Z,10.4
2023-02-14T16:34:48.610Z,9.7
2023-02-14T16:39:54.964Z,9.7
2023-02-14T16:45:01.418Z,13.2
2023-02-14T16:50:07.971Z,10.2
2023-02-14T16:55:14.400Z,12.1
2023-02-14T17:00:20.774Z,13.2
2023-02-14T17:05:27.170Z,12.0
2023-02-14T17:10:33.527Z,10.6
2023-02-14T17:15:39.946Z,14.2
2023-02-14T17:21:10.346Z,13.1
2023-02-14T17:25:52.661Z,13.4
2023-02-14T17:31:00.803Z,11.4
2023-02-14T17:36:05.423Z,12.8
2023-02-14T17:41:11.838Z,10.4
2023-02-14T17:46:18.228Z,14.0
2023-02-14T17:51:14.550Z,13.4
2023-02-14T17:56:21.151Z,11.8
2023-02-14T18:01:27.778Z,14.0
2023-02-14T18:06:45.682Z,18.1
2023-02-14T18:11:42.077Z,12.7
2023-02-14T18:17:00.014Z,39.9
2023-02-14T18:22:06.406Z,13.7
2023-02-14T18:27:12.818Z,19.1
2023-02-14T18:32:19.161Z,16.8
2023-02-14T18:37:25.557Z,16.4
2023-02-14T18:42:32.024Z,15.5
2023-02-14T18:47:38.381Z,26.1
2023-02-14T18:52:44.739Z,23.5
2023-02-14T18:57:51.162Z,18.8
2023-02-14T19:03:21.687Z,19.1
2023-02-14T19:08:31.653Z,17.1
2023-02-14T19:13:14.067Z,17.4
2023-02-14T19:18:20.445Z,19.8
2023-02-14T19:23:26.817Z,26.3
2023-02-14T19:28:33.262Z,25.2
2023-02-14T19:33:39.726Z,20.4
2023-02-14T19:38:46.123Z,20.4
2023-02-14T19:43:52.683Z,25.2
2023-02-14T19:49:18.937Z,26.6
2023-02-14T19:54:05.269Z,25.3
2023-02-14T19:59:11.699Z,17.4
2023-02-14T20:04:18.062Z,17.1
2023-02-14T20:09:24.445Z,17.9
2023-02-14T20:14:35.922Z,18.1
2023-02-14T20:19:40.826Z,18.6
2023-02-14T20:24:46.230Z,26.7
2023-02-14T20:29:53.846Z,20.4
2023-02-14T20:35:03.749Z,19.2
2023-02-14T20:40:10.154Z,18.0
2023-02-14T20:45:16.538Z,21.0
2023-02-14T20:50:22.919Z,18.1
2023-02-14T20:55:29.306Z,17.8
2023-02-14T21:00:35.880Z,15.6
2023-02-14T21:05:42.099Z,15.4
2023-02-14T21:10:38.593Z,18.1
2023-02-14T21:15:55.285Z,12.9
2023-02-14T21:21:01.973Z,12.9
2023-02-14T21:26:08.020Z,20.4
2023-02-14T21:31:14.616Z,21.2
2023-02-14T21:36:20.790Z,19.0
2023-02-14T21:41:27.177Z,19.0
2023-02-14T21:46:37.266Z,15.8
2023-02-14T21:51:43.511Z,12.5
2023-02-14T21:56:49.987Z,11.8
2023-02-14T22:01:56.475Z,14.9
2023-02-14T22:07:03.319Z,19.6
2023-02-14T22:12:09.863Z,15.5
2023-02-14T22:17:16.253Z,17.0
2023-02-14T22:22:22.610Z,12.3
2023-02-14T22:27:29.009Z,18.3
2023-02-14T22:32:35.427Z,18.3
2023-02-14T22:37:41.832Z,12.9
2023-02-14T22:42:48.218Z,15.5
2023-02-14T22:47:54.616Z,15.7
2023-02-14T22:53:00.968Z,14.3
2023-02-14T22:58:07.353Z,14.1
2023-02-14T23:03:13.769Z,11.8
2023-02-14T23:08:20.158Z,14.0
2023-02-14T23:13:26.567Z,14.7
2023-02-14T23:18:32.934Z,16.7
2023-02-14T23:23:39.294Z,15.6
2023-02-14T23:28:45.793Z,18.3
2023-02-14T23:33:42.221Z,18.0
2023-02-14T23:38:58.595Z,15.9
2023-02-14T23:44:04.969Z,16.7
2023-02-14T23:49:11.373Z,16.3
2023-02-14T23:54:17.779Z,15.8
2023-02-14T23:59:24.131Z,15.6
